Time;durP1;ratioP1;P1;durP2;ratioP2;P2;SDS_P1;SDS_P2;PMS_P1;PMS_P2;Temp;Humidity;BMP_temperature;BMP_pressure;BME280_temperature;BME280_humidity;BME280_pressure;Samples;Min_cycle;Max_cycle;Signal;HPM_P1;HPM_P2
2021/07/13 00:02:12;;;;;;;112.95;70.38;;;;;;;;;;5111089;28;20053;-65
2021/07/13 00:04:38;;;;;;;106.05;70.38;;;;;;;;;;5108619;28;20035;-65
2021/07/13 00:07:04;;;;;;;115.00;70.72;;;;;;;;;;5092193;28;20507;-65
2021/07/13 00:09:30;;;;;;;109.20;68.88;;;;;;;;;;5109929;28;20034;-65
2021/07/13 00:11:58;;;;;;;103.13;68.10;;;;;;;;;;5109769;28;20016;-66
2021/07/13 00:14:24;;;;;;;103.53;68.60;;;;;;;;;;5108129;28;20019;-65
2021/07/13 00:16:50;;;;;;;106.78;67.57;;;;;;;;;;5110639;28;20395;-66
2021/07/13 00:19:17;;;;;;;111.60;71.85;;;;;;;;;;5109874;28;20020;-66
2021/07/13 00:21:43;;;;;;;116.88;72.28;;;;;;;;;;5110574;28;20058;-66
2021/07/13 00:24:09;;;;;;;118.90;75.55;;;;;;;;;;5108991;28;20026;-66
2021/07/13 00:26:36;;;;;;;105.72;69.90;;;;;;;;;;5110096;27;20031;-67
2021/07/13 00:29:02;;;;;;;113.38;69.40;;;;;;;;;;5107809;28;20513;-66
2021/07/13 00:31:28;;;;;;;115.32;72.63;;;;;;;;;;5090670;28;20081;-66
2021/07/13 00:33:54;;;;;;;104.05;68.47;;;;;;;;;;5108587;28;20028;-66
2021/07/13 00:36:21;;;;;;;117.20;76.50;;;;;;;;;;5108141;28;20025;-66
2021/07/13 00:38:47;;;;;;;106.30;69.22;;;;;;;;;;5109835;28;20047;-65
2021/07/13 00:41:13;;;;;;;116.32;76.38;;;;;;;;;;5110602;28;20730;-66
2021/07/13 00:43:39;;;;;;;128.82;79.65;;;;;;;;;;5108534;28;20217;-66
2021/07/13 00:46:05;;;;;;;119.40;75.47;;;;;;;;;;5090137;28;20659;-66
2021/07/13 00:48:31;;;;;;;136.65;77.28;;;;;;;;;;5109905;27;20031;-66
2021/07/13 00:50:59;;;;;;;122.07;76.55;;;;;;;;;;5110474;28;20043;-66
2021/07/13 00:53:25;;;;;;;122.35;75.95;;;;;;;;;;5107736;28;20047;-67
2021/07/13 00:55:54;;;;;;;207.05;93.72;;;;;;;;;;5109674;27;20491;-66
2021/07/13 00:58:20;;;;;;;133.80;80.28;;;;;;;;;;5090377;28;20016;-66
2021/07/13 01:00:47;;;;;;;135.60;81.10;;;;;;;;;;5109346;28;20764;-66
2021/07/13 01:03:13;;;;;;;125.20;75.88;;;;;;;;;;5108604;28;20046;-66
2021/07/13 01:05:44;;;;;;;120.35;79.90;;;;;;;;;;5089004;28;20096;-67
2021/07/13 01:08:33;;;;;;;113.60;74.22;;;;;;;;;;5109676;28;20030;-66
2021/07/13 01:11:12;;;;;;;116.57;73.22;;;;;;;;;;5047696;28;20036;-66
2021/07/13 01:13:44;;;;;;;120.65;75.20;;;;;;;;;;5106648;28;20031;-66
2021/07/13 01:16:25;;;;;;;115.60;72.55;;;;;;;;;;5108728;28;20710;-66
2021/07/13 01:18:54;;;;;;;129.48;76.00;;;;;;;;;;5107932;28;20028;-66
2021/07/13 01:21:21;;;;;;;122.55;73.47;;;;;;;;;;5109500;28;20022;-66
2021/07/13 01:23:56;;;;;;;123.50;74.53;;;;;;;;;;5107341;28;20034;-66
2021/07/13 01:26:36;;;;;;;125.13;75.97;;;;;;;;;;5093048;28;20036;-65
2021/07/13 01:29:04;;;;;;;119.93;77.63;;;;;;;;;;5108330;28;20043;-66
2021/07/13 01:31:31;;;;;;;122.53;78.53;;;;;;;;;;5109310;28;20031;-66
2021/07/13 01:34:09;;;;;;;122.68;73.38;;;;;;;;;;5105879;28;20111;-66
2021/07/13 01:36:38;;;;;;;112.38;73.30;;;;;;;;;;5107668;28;20027;-66
2021/07/13 01:39:05;;;;;;;115.65;69.68;;;;;;;;;;5106700;28;20023;-66
2021/07/13 01:41:32;;;;;;;117.75;73.05;;;;;;;;;;5110061;28;20027;-66
2021/07/13 01:43:58;;;;;;;110.05;71.80;;;;;;;;;;5086300;28;20028;-66
2021/07/13 01:46:25;;;;;;;113.00;71.03;;;;;;;;;;5108682;28;20062;-66
2021/07/13 01:48:52;;;;;;;111.03;70.93;;;;;;;;;;5108117;28;20093;-66
2021/07/13 01:51:20;;;;;;;109.13;73.63;;;;;;;;;;5109206;28;20023;-66
2021/07/13 01:53:47;;;;;;;136.80;78.97;;;;;;;;;;5106830;28;20027;-66
2021/07/13 01:56:14;;;;;;;117.07;71.40;;;;;;;;;;5108700;28;20024;-66
2021/07/13 01:58:40;;;;;;;118.53;71.75;;;;;;;;;;5109466;28;20023;-66
2021/07/13 02:01:08;;;;;;;116.97;72.18;;;;;;;;;;5108143;28;20523;-66
2021/07/13 02:03:34;;;;;;;117.30;71.68;;;;;;;;;;5107583;28;20024;-66
2021/07/13 02:06:01;;;;;;;118.93;72.63;;;;;;;;;;5107576;28;20062;-66
2021/07/13 02:08:28;;;;;;;117.78;74.13;;;;;;;;;;5090721;28;20035;-66
2021/07/13 02:10:54;;;;;;;124.38;76.22;;;;;;;;;;5108966;28;20032;-66
2021/07/13 02:13:20;;;;;;;124.00;72.18;;;;;;;;;;5111023;28;20030;-66
2021/07/13 02:15:47;;;;;;;108.43;75.47;;;;;;;;;;5112674;28;20371;-66
2021/07/13 02:18:13;;;;;;;111.97;76.32;;;;;;;;;;5112873;28;20027;-66
2021/07/13 02:20:39;;;;;;;119.93;77.40;;;;;;;;;;5112455;28;20023;-67
2021/07/13 02:23:06;;;;;;;120.32;77.22;;;;;;;;;;5092464;28;20042;-66
2021/07/13 02:25:33;;;;;;;123.25;80.35;;;;;;;;;;5092616;28;20039;-66
2021/07/13 02:28:18;;;;;;;136.52;82.15;;;;;;;;;;5094479;28;20016;-66
2021/07/13 02:30:47;;;;;;;120.03;77.95;;;;;;;;;;5112090;28;20552;-66
2021/07/13 02:33:21;;;;;;;131.68;83.45;;;;;;;;;;5093062;28;20020;-66
2021/07/13 02:35:55;;;;;;;130.35;82.95;;;;;;;;;;5109008;28;20019;-67
2021/07/13 02:38:22;;;;;;;137.38;85.65;;;;;;;;;;5112714;28;20038;-66
2021/07/13 02:40:48;;;;;;;159.73;87.53;;;;;;;;;;5109789;28;20035;-66
2021/07/13 02:43:14;;;;;;;144.05;87.38;;;;;;;;;;5110498;28;20023;-66
2021/07/13 02:45:40;;;;;;;145.90;85.60;;;;;;;;;;5111932;28;20028;-66
2021/07/13 02:48:07;;;;;;;134.10;80.45;;;;;;;;;;5112956;28;20050;-67
2021/07/13 02:50:34;;;;;;;137.70;79.72;;;;;;;;;;5111442;27;20047;-66
2021/07/13 02:53:02;;;;;;;138.20;84.88;;;;;;;;;;5110722;28;20172;-65
2021/07/13 02:55:30;;;;;;;160.23;92.85;;;;;;;;;;5112066;28;20103;-66
2021/07/13 02:57:57;;;;;;;194.88;99.82;;;;;;;;;;5111431;28;20035;-66
2021/07/13 03:00:23;;;;;;;195.85;100.63;;;;;;;;;;5111843;28;20034;-66
2021/07/13 03:02:50;;;;;;;197.88;99.38;;;;;;;;;;5110907;28;20028;-66
2021/07/13 03:05:21;;;;;;;209.77;101.90;;;;;;;;;;5109544;28;20075;-66
2021/07/13 03:07:48;;;;;;;204.18;105.80;;;;;;;;;;5092876;28;20031;-66
2021/07/13 03:10:15;;;;;;;238.32;116.43;;;;;;;;;;5091671;28;20119;-66
2021/07/13 03:12:43;;;;;;;183.18;101.13;;;;;;;;;;5110067;28;20016;-67
2021/07/13 03:15:10;;;;;;;188.32;105.18;;;;;;;;;;5112395;28;20111;-66
2021/07/13 03:17:36;;;;;;;233.10;111.47;;;;;;;;;;5093856;28;20526;-66
2021/07/13 03:20:02;;;;;;;246.13;121.15;;;;;;;;;;5093022;28;20061;-66
2021/07/13 03:22:47;;;;;;;201.20;108.72;;;;;;;;;;5110080;28;20027;-66
2021/07/13 03:25:16;;;;;;;222.73;117.07;;;;;;;;;;5093617;28;20503;-66
2021/07/13 03:27:42;;;;;;;186.52;108.75;;;;;;;;;;5108956;28;20530;-66
2021/07/13 03:30:09;;;;;;;222.13;109.93;;;;;;;;;;5091529;28;20035;-66
2021/07/13 03:32:35;;;;;;;211.10;107.28;;;;;;;;;;5110127;28;20027;-66
2021/07/13 03:35:03;;;;;;;242.80;122.82;;;;;;;;;;5110201;28;20051;-66
2021/07/13 03:37:29;;;;;;;233.75;121.05;;;;;;;;;;5110188;28;20019;-66
2021/07/13 03:39:55;;;;;;;238.70;123.55;;;;;;;;;;5110182;28;20024;-66
2021/07/13 03:42:22;;;;;;;297.52;123.80;;;;;;;;;;5110647;28;20028;-66
2021/07/13 03:44:48;;;;;;;203.77;108.75;;;;;;;;;;5109025;28;20062;-66
2021/07/13 03:47:15;;;;;;;266.83;126.95;;;;;;;;;;5092547;28;20016;-66
2021/07/13 03:49:42;;;;;;;285.27;143.15;;;;;;;;;;5111213;27;20024;-66
2021/07/13 03:52:09;;;;;;;277.05;137.85;;;;;;;;;;5092411;28;20055;-66
2021/07/13 03:54:35;;;;;;;309.88;142.55;;;;;;;;;;5109745;28;20031;-66
2021/07/13 03:57:01;;;;;;;356.48;159.00;;;;;;;;;;5110202;28;20136;-66
2021/07/13 03:59:28;;;;;;;320.05;156.20;;;;;;;;;;5110839;28;20015;-66
2021/07/13 04:01:55;;;;;;;305.55;152.25;;;;;;;;;;5110365;28;20045;-66
2021/07/13 04:04:21;;;;;;;266.02;146.52;;;;;;;;;;5108732;28;20035;-67
2021/07/13 04:06:47;;;;;;;356.55;161.77;;;;;;;;;;5108942;28;20024;-67
2021/07/13 04:09:13;;;;;;;319.15;164.32;;;;;;;;;;5110447;28;20035;-66
2021/07/13 04:11:39;;;;;;;365.98;165.43;;;;;;;;;;5110166;28;20509;-67
2021/07/13 04:14:06;;;;;;;269.48;145.25;;;;;;;;;;5109270;28;20047;-66
2021/07/13 04:16:32;;;;;;;314.77;157.98;;;;;;;;;;5109803;28;20023;-66
2021/07/13 04:18:58;;;;;;;315.63;151.75;;;;;;;;;;5110669;28;20035;-66
2021/07/13 04:21:24;;;;;;;372.70;172.82;;;;;;;;;;5090147;28;20119;-66
2021/07/13 04:23:50;;;;;;;313.73;152.02;;;;;;;;;;5109862;28;20019;-66
2021/07/13 04:26:16;;;;;;;330.27;167.38;;;;;;;;;;5110564;27;20019;-66
2021/07/13 04:28:43;;;;;;;258.48;155.07;;;;;;;;;;5110222;28;20061;-67
2021/07/13 04:31:09;;;;;;;278.15;152.70;;;;;;;;;;5109534;28;20036;-66
2021/07/13 04:33:35;;;;;;;306.77;169.00;;;;;;;;;;5109113;28;20103;-66
2021/07/13 04:36:01;;;;;;;262.60;139.95;;;;;;;;;;5090301;28;20024;-66
2021/07/13 04:38:27;;;;;;;314.63;146.30;;;;;;;;;;5091850;28;20023;-66
2021/07/13 04:40:54;;;;;;;336.77;161.55;;;;;;;;;;5109111;28;20502;-66
2021/07/13 04:43:20;;;;;;;304.90;151.15;;;;;;;;;;5108364;28;20038;-66
2021/07/13 04:45:46;;;;;;;294.02;148.13;;;;;;;;;;5090458;28;20035;-67
2021/07/13 04:48:12;;;;;;;262.45;144.48;;;;;;;;;;5106927;28;20122;-66
2021/07/13 04:50:38;;;;;;;328.05;156.98;;;;;;;;;;5110321;28;20486;-66
2021/07/13 04:53:04;;;;;;;351.45;162.18;;;;;;;;;;5108290;28;20040;-66
2021/07/13 04:55:31;;;;;;;336.08;158.50;;;;;;;;;;5110310;28;20038;-66
2021/07/13 04:57:57;;;;;;;341.77;158.05;;;;;;;;;;5090037;28;20072;-66
2021/07/13 05:00:23;;;;;;;350.75;174.52;;;;;;;;;;5109004;28;20024;-66
2021/07/13 05:02:49;;;;;;;316.30;158.88;;;;;;;;;;5090006;28;21110;-66
2021/07/13 05:05:15;;;;;;;349.58;168.35;;;;;;;;;;5109792;28;20024;-66
2021/07/13 05:07:41;;;;;;;310.45;155.00;;;;;;;;;;5109636;28;20028;-66
2021/07/13 05:10:09;;;;;;;352.10;175.02;;;;;;;;;;5107883;28;20039;-67
2021/07/13 05:12:35;;;;;;;347.90;171.65;;;;;;;;;;5108370;28;20030;-66
2021/07/13 05:15:01;;;;;;;314.58;162.43;;;;;;;;;;5091606;28;20043;-66
2021/07/13 05:17:27;;;;;;;311.48;150.77;;;;;;;;;;5108872;28;20048;-66
2021/07/13 05:19:53;;;;;;;338.13;156.60;;;;;;;;;;5110115;28;20098;-67
2021/07/13 05:22:20;;;;;;;306.90;158.88;;;;;;;;;;5108017;28;20031;-66
2021/07/13 05:24:46;;;;;;;305.42;164.55;;;;;;;;;;5089453;28;20024;-66
2021/07/13 05:27:13;;;;;;;296.23;165.60;;;;;;;;;;5104993;28;20039;-66
2021/07/13 05:29:40;;;;;;;312.40;169.45;;;;;;;;;;5109179;28;20031;-66
2021/07/13 05:32:06;;;;;;;299.38;167.05;;;;;;;;;;5109242;28;20250;-66
2021/07/13 05:34:32;;;;;;;297.40;165.15;;;;;;;;;;5108247;28;20092;-66
2021/07/13 05:36:58;;;;;;;280.60;153.98;;;;;;;;;;5108426;28;20031;-66
2021/07/13 05:39:24;;;;;;;293.75;164.27;;;;;;;;;;5108359;28;20111;-66
2021/07/13 05:41:50;;;;;;;303.13;169.55;;;;;;;;;;5093044;28;20066;-66
2021/07/13 05:44:16;;;;;;;296.00;174.45;;;;;;;;;;5105619;28;20080;-66
2021/07/13 05:46:42;;;;;;;285.23;162.20;;;;;;;;;;5111796;28;20517;-65
2021/07/13 05:49:08;;;;;;;274.20;160.88;;;;;;;;;;5114052;28;20491;-66
2021/07/13 05:51:34;;;;;;;277.27;144.82;;;;;;;;;;5106384;28;20109;-66
2021/07/13 05:54:00;;;;;;;273.98;150.80;;;;;;;;;;5112734;28;20104;-65
2021/07/13 05:56:26;;;;;;;275.42;154.82;;;;;;;;;;5094811;28;20558;-66
2021/07/13 05:58:52;;;;;;;275.27;154.48;;;;;;;;;;5113587;28;20016;-65
2021/07/13 06:01:19;;;;;;;258.58;146.65;;;;;;;;;;5113594;28;20040;-66
2021/07/13 06:03:45;;;;;;;299.00;163.95;;;;;;;;;;5111940;28;20502;-66
2021/07/13 06:06:11;;;;;;;284.30;154.23;;;;;;;;;;5112636;28;20487;-66
2021/07/13 06:08:37;;;;;;;273.27;152.85;;;;;;;;;;5123277;27;20024;-66
2021/07/13 06:11:03;;;;;;;273.15;149.27;;;;;;;;;;5110061;28;20596;-66
2021/07/13 06:13:29;;;;;;;305.45;164.80;;;;;;;;;;5094820;28;20720;-66
2021/07/13 06:15:55;;;;;;;299.95;155.57;;;;;;;;;;5113113;28;20597;-66
2021/07/13 06:18:21;;;;;;;262.98;153.55;;;;;;;;;;5112993;28;20024;-66
2021/07/13 06:20:48;;;;;;;275.80;160.85;;;;;;;;;;5113381;28;20028;-65
2021/07/13 06:23:14;;;;;;;262.52;156.65;;;;;;;;;;5112731;28;20036;-66
2021/07/13 06:25:42;;;;;;;267.20;160.60;;;;;;;;;;5117412;27;20051;-65
2021/07/13 06:28:08;;;;;;;259.77;153.68;;;;;;;;;;5112483;28;20039;-66
2021/07/13 06:30:34;;;;;;;240.20;148.40;;;;;;;;;;5111416;28;20107;-65
2021/07/13 06:33:01;;;;;;;233.63;152.48;;;;;;;;;;5119090;27;20130;-65
2021/07/13 06:35:27;;;;;;;228.30;151.23;;;;;;;;;;5111544;27;20028;-65
2021/07/13 06:37:53;;;;;;;223.05;150.48;;;;;;;;;;5111059;28;20031;-65
2021/07/13 06:40:19;;;;;;;185.90;128.57;;;;;;;;;;5089939;28;20016;-64
2021/07/13 06:42:45;;;;;;;225.98;151.73;;;;;;;;;;5110464;27;20046;-65
2021/07/13 06:45:11;;;;;;;192.00;97.53;;;;;;;;;;5112353;28;20526;-65
2021/07/13 06:47:37;;;;;;;177.20;101.45;;;;;;;;;;5110873;28;20062;-65
2021/07/13 06:50:05;;;;;;;174.43;107.30;;;;;;;;;;5093607;28;20451;-65
2021/07/13 06:52:32;;;;;;;172.40;118.88;;;;;;;;;;5110050;28;20126;-65
2021/07/13 06:55:02;;;;;;;152.40;108.82;;;;;;;;;;5111417;28;20069;-65
2021/07/13 06:57:28;;;;;;;169.30;103.53;;;;;;;;;;5110371;28;20525;-65
2021/07/13 06:59:59;;;;;;;155.85;105.75;;;;;;;;;;5115181;28;20020;-65
2021/07/13 07:02:25;;;;;;;173.43;118.28;;;;;;;;;;5097760;28;20066;-66
2021/07/13 07:04:51;;;;;;;153.50;112.72;;;;;;;;;;5110820;28;20094;-66
2021/07/13 07:07:17;;;;;;;151.13;108.65;;;;;;;;;;5095578;28;20557;-65
2021/07/13 07:09:43;;;;;;;165.77;107.60;;;;;;;;;;5112120;28;20058;-65
2021/07/13 07:12:09;;;;;;;138.55;99.97;;;;;;;;;;5107454;28;20023;-64
2021/07/13 07:14:35;;;;;;;139.55;93.82;;;;;;;;;;5106522;28;20034;-64
2021/07/13 07:17:01;;;;;;;140.77;99.15;;;;;;;;;;5092808;28;20035;-65
2021/07/13 07:19:27;;;;;;;153.48;99.28;;;;;;;;;;5110686;28;20055;-65
2021/07/13 07:21:53;;;;;;;141.57;94.28;;;;;;;;;;5109155;28;20115;-64
2021/07/13 07:24:19;;;;;;;133.00;95.28;;;;;;;;;;5106657;28;20027;-64
2021/07/13 07:26:46;;;;;;;137.70;94.60;;;;;;;;;;5108866;28;20027;-64
2021/07/13 07:29:12;;;;;;;129.52;98.60;;;;;;;;;;5093052;28;20024;-64
2021/07/13 07:31:38;;;;;;;115.72;82.68;;;;;;;;;;5112077;28;20039;-64
2021/07/13 07:34:04;;;;;;;126.40;92.80;;;;;;;;;;5110361;28;20509;-64
2021/07/13 07:36:30;;;;;;;123.90;88.93;;;;;;;;;;5091045;28;20035;-64
2021/07/13 07:38:56;;;;;;;121.97;84.00;;;;;;;;;;5101848;28;20024;-64
2021/07/13 07:41:22;;;;;;;119.90;91.22;;;;;;;;;;5092224;28;20106;-65
2021/07/13 07:43:49;;;;;;;120.53;81.20;;;;;;;;;;5110485;28;20023;-64
2021/07/13 07:46:15;;;;;;;118.30;81.18;;;;;;;;;;5111215;28;20023;-65
2021/07/13 07:48:42;;;;;;;116.60;80.82;;;;;;;;;;5091388;28;20023;-64
2021/07/13 07:51:08;;;;;;;96.80;67.82;;;;;;;;;;5108358;28;20112;-64
2021/07/13 07:53:34;;;;;;;98.72;75.15;;;;;;;;;;5067817;28;1140788;-64
2021/07/13 07:56:00;;;;;;;107.88;76.70;;;;;;;;;;5115873;27;20028;-65
2021/07/13 07:58:26;;;;;;;100.30;67.35;;;;;;;;;;5110750;27;20038;-64
2021/07/13 08:00:53;;;;;;;94.10;67.03;;;;;;;;;;5110899;27;20088;-64
2021/07/13 08:03:19;;;;;;;90.75;67.82;;;;;;;;;;5088949;28;20089;-64
2021/07/13 08:05:45;;;;;;;90.43;63.15;;;;;;;;;;5106866;27;20032;-64
2021/07/13 08:08:11;;;;;;;104.30;73.28;;;;;;;;;;5103493;27;20035;-64
2021/07/13 08:10:38;;;;;;;90.20;54.50;;;;;;;;;;5104528;28;20540;-64
2021/07/13 08:13:04;;;;;;;93.65;60.50;;;;;;;;;;5108124;28;20055;-64
2021/07/13 08:15:31;;;;;;;87.45;56.97;;;;;;;;;;5107505;28;20024;-64
2021/07/13 08:17:57;;;;;;;91.95;59.38;;;;;;;;;;5095167;28;20110;-64
2021/07/13 08:20:23;;;;;;;95.35;58.28;;;;;;;;;;5090405;28;20028;-65
2021/07/13 08:22:50;;;;;;;91.22;56.70;;;;;;;;;;5109702;27;20035;-64
2021/07/13 08:25:16;;;;;;;99.47;59.15;;;;;;;;;;5105573;28;20027;-64
2021/07/13 08:27:42;;;;;;;87.18;53.33;;;;;;;;;;5105860;28;20039;-64
2021/07/13 08:30:09;;;;;;;87.03;52.33;;;;;;;;;;5090678;28;20084;-64
2021/07/13 08:32:35;;;;;;;86.65;54.20;;;;;;;;;;5105634;28;20234;-64
2021/07/13 08:35:01;;;;;;;83.97;53.28;;;;;;;;;;5110240;28;20520;-64
2021/07/13 08:37:29;;;;;;;76.18;52.95;;;;;;;;;;5109935;28;20107;-64
2021/07/13 08:39:55;;;;;;;82.60;54.45;;;;;;;;;;5094569;27;20039;-64
2021/07/13 08:42:21;;;;;;;92.45;59.35;;;;;;;;;;5109413;27;20073;-64
2021/07/13 08:44:47;;;;;;;84.55;53.40;;;;;;;;;;5103190;28;20035;-64
2021/07/13 08:47:14;;;;;;;88.07;53.30;;;;;;;;;;5105340;28;20023;-64
2021/07/13 08:49:41;;;;;;;88.03;54.55;;;;;;;;;;5110253;28;20024;-64
2021/07/13 08:52:07;;;;;;;85.78;53.70;;;;;;;;;;5105666;28;20036;-69
2021/07/13 08:54:36;;;;;;;81.38;52.67;;;;;;;;;;5103640;28;20019;-67
2021/07/13 08:57:02;;;;;;;74.95;49.85;;;;;;;;;;5119740;27;20031;-64
2021/07/13 08:59:29;;;;;;;79.20;49.67;;;;;;;;;;5106436;28;20031;-64
2021/07/13 09:01:55;;;;;;;68.18;47.22;;;;;;;;;;5106059;28;20023;-64
2021/07/13 09:04:31;;;;;;;66.60;43.75;;;;;;;;;;5084900;28;20065;-64
2021/07/13 09:06:58;;;;;;;69.00;43.42;;;;;;;;;;5088863;28;20131;-64
2021/07/13 09:09:26;;;;;;;60.58;36.40;;;;;;;;;;5103847;28;20514;-64
2021/07/13 09:12:09;;;;;;;55.15;37.88;;;;;;;;;;5105818;28;20123;-64
2021/07/13 09:15:05;;;;;;;54.45;36.22;;;;;;;;;;5097391;28;20012;-65
2021/07/13 09:17:39;;;;;;;61.25;36.75;;;;;;;;;;5074060;28;20035;-64
2021/07/13 09:20:11;;;;;;;49.97;34.95;;;;;;;;;;5095503;28;20035;-65
2021/07/13 09:22:39;;;;;;;48.80;33.60;;;;;;;;;;5101263;28;20594;-64
2021/07/13 09:25:23;;;;;;;46.05;29.38;;;;;;;;;;5106156;28;20028;-65
2021/07/13 09:28:10;;;;;;;42.50;27.55;;;;;;;;;;5107788;28;20024;-64
2021/07/13 09:30:37;;;;;;;46.75;28.90;;;;;;;;;;5090186;28;20032;-64
2021/07/13 09:33:18;;;;;;;37.05;26.15;;;;;;;;;;5104536;28;20019;-64
2021/07/13 09:35:59;;;;;;;39.83;24.85;;;;;;;;;;5096145;28;20088;-64
2021/07/13 09:38:26;;;;;;;39.10;26.92;;;;;;;;;;5099203;28;20036;-64
2021/07/13 09:41:01;;;;;;;45.63;28.60;;;;;;;;;;5099795;28;20022;-65
2021/07/13 09:43:27;;;;;;;37.58;26.45;;;;;;;;;;5096092;28;20081;-65
2021/07/13 09:45:53;;;;;;;54.67;29.15;;;;;;;;;;5104098;28;20015;-65
2021/07/13 09:48:21;;;;;;;41.03;25.80;;;;;;;;;;5100268;28;20087;-64
2021/07/13 09:50:49;;;;;;;43.83;25.30;;;;;;;;;;5104203;28;20372;-64
2021/07/13 09:53:18;;;;;;;50.10;27.67;;;;;;;;;;5103043;28;20408;-64
2021/07/13 09:55:48;;;;;;;43.80;24.85;;;;;;;;;;5103539;28;20015;-64
2021/07/13 09:58:14;;;;;;;41.92;26.25;;;;;;;;;;5102600;28;20043;-64
2021/07/13 10:00:41;;;;;;;37.22;24.90;;;;;;;;;;5102520;28;20054;-65
2021/07/13 10:03:09;;;;;;;38.10;22.42;;;;;;;;;;5101914;28;20069;-64
2021/07/13 10:05:36;;;;;;;41.33;25.65;;;;;;;;;;5103252;28;20011;-65
2021/07/13 10:08:03;;;;;;;36.03;22.63;;;;;;;;;;5106454;28;20024;-64
2021/07/13 10:10:29;;;;;;;34.50;21.90;;;;;;;;;;5099933;28;20042;-64
2021/07/13 10:12:55;;;;;;;33.17;23.70;;;;;;;;;;5097765;28;20042;-65
2021/07/13 10:15:21;;;;;;;34.35;21.80;;;;;;;;;;5102712;28;20491;-64
2021/07/13 10:17:47;;;;;;;38.55;22.63;;;;;;;;;;5101162;28;20028;-64
2021/07/13 10:20:14;;;;;;;41.03;22.45;;;;;;;;;;5101682;28;20552;-65
2021/07/13 10:22:43;;;;;;;40.85;21.55;;;;;;;;;;5098245;28;20039;-64
2021/07/13 10:25:10;;;;;;;35.35;21.27;;;;;;;;;;5100112;28;20061;-64
2021/07/13 10:27:40;;;;;;;32.70;20.38;;;;;;;;;;5101071;27;20209;-65
2021/07/13 10:30:29;;;;;;;26.20;17.27;;;;;;;;;;5098647;28;20068;-66
2021/07/13 10:32:56;;;;;;;33.63;17.48;;;;;;;;;;5085755;28;20058;-64
2021/07/13 10:35:25;;;;;;;30.90;17.15;;;;;;;;;;5109193;27;20027;-64
2021/07/13 10:37:54;;;;;;;28.50;16.55;;;;;;;;;;5108118;27;20024;-64
2021/07/13 10:40:26;;;;;;;23.33;14.20;;;;;;;;;;5114207;27;20076;-65
2021/07/13 10:42:59;;;;;;;19.65;12.43;;;;;;;;;;5092266;28;20028;-64
2021/07/13 10:45:29;;;;;;;26.40;14.25;;;;;;;;;;5106578;27;20555;-64
2021/07/13 10:47:58;;;;;;;25.45;12.10;;;;;;;;;;5115834;27;20023;-65
2021/07/13 10:50:27;;;;;;;22.88;13.65;;;;;;;;;;5111598;27;20027;-65
2021/07/13 10:52:54;;;;;;;22.92;12.45;;;;;;;;;;5111629;27;20061;-65
2021/07/13 10:55:37;;;;;;;20.08;11.48;;;;;;;;;;5105895;27;20551;-64
2021/07/13 10:58:12;;;;;;;22.92;12.48;;;;;;;;;;5103088;27;20043;-64
2021/07/13 11:00:51;;;;;;;23.38;13.85;;;;;;;;;;5110071;27;20024;-64
2021/07/13 11:03:32;;;;;;;21.52;13.07;;;;;;;;;;5083508;28;20028;-64
2021/07/13 11:06:02;;;;;;;23.70;12.05;;;;;;;;;;5089598;28;20028;-64
2021/07/13 11:11:09;;;;;;;21.23;11.07;;;;;;;;;;5105160;27;20050;-64
2021/07/13 11:13:36;;;;;;;18.45;10.93;;;;;;;;;;5106776;27;20028;-64
2021/07/13 11:16:03;;;;;;;24.27;11.05;;;;;;;;;;5108682;27;20024;-64
2021/07/13 11:18:36;;;;;;;19.75;10.70;;;;;;;;;;5111458;27;20015;-63
2021/07/13 11:21:14;;;;;;;23.48;11.35;;;;;;;;;;5109891;27;20155;-65
2021/07/13 11:23:41;;;;;;;22.63;10.60;;;;;;;;;;5106285;27;20024;-64
2021/07/13 11:26:08;;;;;;;20.63;11.45;;;;;;;;;;5105765;27;20561;-64
2021/07/13 11:28:35;;;;;;;18.75;10.80;;;;;;;;;;5101807;28;20024;-64
2021/07/13 11:31:02;;;;;;;18.38;9.35;;;;;;;;;;5102466;27;20019;-63
2021/07/13 11:33:29;;;;;;;22.27;11.63;;;;;;;;;;5099143;28;20042;-65
2021/07/13 11:35:56;;;;;;;19.17;10.10;;;;;;;;;;5084619;28;20077;-64
2021/07/13 11:38:26;;;;;;;16.13;9.52;;;;;;;;;;5103460;28;20213;-63
2021/07/13 11:41:11;;;;;;;16.40;10.73;;;;;;;;;;5102204;27;20081;-64
2021/07/13 11:43:38;;;;;;;23.13;10.88;;;;;;;;;;5100384;27;20034;-64
2021/07/13 11:46:15;;;;;;;18.90;9.07;;;;;;;;;;5104482;28;20027;-63
2021/07/13 11:48:41;;;;;;;23.60;10.68;;;;;;;;;;5104179;27;20027;-64
2021/07/13 11:51:08;;;;;;;21.02;9.90;;;;;;;;;;5104660;28;20486;-64
2021/07/13 11:53:35;;;;;;;22.45;9.68;;;;;;;;;;5101045;28;20036;-65
2021/07/13 11:56:02;;;;;;;16.45;9.07;;;;;;;;;;5105917;27;20507;-64
2021/07/13 11:58:29;;;;;;;18.65;10.43;;;;;;;;;;5102161;27;20178;-64
2021/07/13 12:00:55;;;;;;;16.48;8.57;;;;;;;;;;5085025;28;20511;-65
2021/07/13 12:03:30;;;;;;;19.25;8.70;;;;;;;;;;5096967;28;20023;-63
2021/07/13 12:06:13;;;;;;;17.52;9.95;;;;;;;;;;5102591;27;20038;-64
2021/07/13 12:08:39;;;;;;;18.55;9.30;;;;;;;;;;5102495;28;20019;-64
2021/07/13 12:11:05;;;;;;;19.70;9.65;;;;;;;;;;5101634;28;20039;-63
2021/07/13 12:13:32;;;;;;;14.52;7.68;;;;;;;;;;5101468;28;20047;-64
2021/07/13 12:16:15;;;;;;;18.40;7.65;;;;;;;;;;5103581;28;20032;-64
2021/07/13 12:18:41;;;;;;;22.73;9.07;;;;;;;;;;5083847;28;20024;-64
2021/07/13 12:21:07;;;;;;;20.77;8.23;;;;;;;;;;5102071;27;20032;-64
2021/07/13 12:23:33;;;;;;;21.08;8.25;;;;;;;;;;5100584;28;20035;-64
2021/07/13 12:26:18;;;;;;;19.60;8.90;;;;;;;;;;5104578;28;20019;-64
2021/07/13 12:29:03;;;;;;;17.02;8.65;;;;;;;;;;5103113;28;20089;-64
2021/07/13 12:31:29;;;;;;;16.83;8.60;;;;;;;;;;5103134;28;20062;-65
2021/07/13 12:33:55;;;;;;;15.43;8.80;;;;;;;;;;5101690;28;20040;-64
2021/07/13 12:36:28;;;;;;;22.10;8.32;;;;;;;;;;5108067;28;20023;-64
2021/07/13 12:38:55;;;;;;;16.95;8.55;;;;;;;;;;5104243;27;20043;-64
2021/07/13 12:41:21;;;;;;;17.08;8.18;;;;;;;;;;5104141;28;20032;-64
2021/07/13 12:43:48;;;;;;;21.08;9.00;;;;;;;;;;5100986;28;20035;-64
2021/07/13 12:46:27;;;;;;;19.88;7.65;;;;;;;;;;5103621;28;20110;-64
2021/07/13 12:48:53;;;;;;;22.27;8.23;;;;;;;;;;5101106;28;20509;-65
2021/07/13 12:51:26;;;;;;;21.40;8.88;;;;;;;;;;5103380;28;20023;-64
2021/07/13 12:54:05;;;;;;;17.05;8.73;;;;;;;;;;5099070;28;20024;-65
2021/07/13 12:56:33;;;;;;;19.45;8.45;;;;;;;;;;5101239;27;20068;-64
2021/07/13 12:59:06;;;;;;;15.95;8.27;;;;;;;;;;5103228;28;20027;-64
2021/07/13 13:01:33;;;;;;;21.38;8.00;;;;;;;;;;5087538;28;20067;-64
2021/07/13 13:04:11;;;;;;;16.20;8.02;;;;;;;;;;5100161;28;20116;-64
2021/07/13 13:06:38;;;;;;;17.65;7.95;;;;;;;;;;5103293;28;20032;-64
2021/07/13 13:09:08;;;;;;;17.13;8.82;;;;;;;;;;5101822;28;20028;-64
2021/07/13 13:11:35;;;;;;;18.88;8.07;;;;;;;;;;5102788;28;20027;-65
2021/07/13 13:14:03;;;;;;;21.08;8.48;;;;;;;;;;5082859;28;20391;-65
2021/07/13 13:16:31;;;;;;;15.75;7.43;;;;;;;;;;5104591;28;20027;-64
2021/07/13 13:18:59;;;;;;;16.25;7.47;;;;;;;;;;5102311;28;20016;-64
2021/07/13 13:21:25;;;;;;;16.67;7.78;;;;;;;;;;5102806;28;20288;-64
2021/07/13 13:23:55;;;;;;;18.30;7.68;;;;;;;;;;5077626;28;20066;-64
2021/07/13 13:26:21;;;;;;;17.92;8.18;;;;;;;;;;5098231;28;20050;-64
2021/07/13 13:28:47;;;;;;;19.83;9.30;;;;;;;;;;5098205;28;20027;-63
2021/07/13 13:31:13;;;;;;;19.42;8.52;;;;;;;;;;5100332;28;20035;-64
2021/07/13 13:33:41;;;;;;;17.85;8.50;;;;;;;;;;5096511;28;20096;-64
2021/07/13 13:36:16;;;;;;;20.13;10.43;;;;;;;;;;5099567;28;20028;-63
2021/07/13 13:38:46;;;;;;;21.38;9.50;;;;;;;;;;5098834;28;20016;-63
2021/07/13 13:41:12;;;;;;;18.13;8.68;;;;;;;;;;5100483;28;20024;-63
2021/07/13 13:43:38;;;;;;;19.92;9.07;;;;;;;;;;5097231;28;20043;-64
2021/07/13 13:46:05;;;;;;;17.38;8.70;;;;;;;;;;5101483;28;20039;-65
2021/07/13 13:48:31;;;;;;;20.95;9.63;;;;;;;;;;5102739;28;20115;-64
2021/07/13 13:50:57;;;;;;;19.90;8.80;;;;;;;;;;5101224;28;20031;-64
2021/07/13 13:53:23;;;;;;;22.42;9.85;;;;;;;;;;5095872;28;20032;-64
2021/07/13 13:55:49;;;;;;;21.85;9.68;;;;;;;;;;5100739;28;20032;-64
2021/07/13 13:58:15;;;;;;;20.02;9.90;;;;;;;;;;5097653;28;20034;-64
2021/07/13 14:00:41;;;;;;;24.27;8.75;;;;;;;;;;5098905;28;20042;-64
2021/07/13 14:03:07;;;;;;;21.05;9.00;;;;;;;;;;5097269;28;20028;-64
2021/07/13 14:05:33;;;;;;;17.33;9.40;;;;;;;;;;5081179;28;20039;-64
2021/07/13 14:07:59;;;;;;;19.27;9.15;;;;;;;;;;5103494;28;20020;-64
2021/07/13 14:10:25;;;;;;;26.10;9.35;;;;;;;;;;5104556;28;20037;-64
2021/07/13 14:12:51;;;;;;;25.77;8.38;;;;;;;;;;5084308;28;20066;-64
2021/07/13 14:15:18;;;;;;;21.60;9.23;;;;;;;;;;5105803;28;20030;-64
2021/07/13 14:17:44;;;;;;;27.15;9.95;;;;;;;;;;5105068;28;20062;-63